Time;durP1;ratioP1;P1;durP2;ratioP2;P2;SDS_P1;SDS_P2;PMS_P1;PMS_P2;Temp;Humidity;BMP_temperature;BMP_pressure;BME280_temperature;BME280_humidity;BME280_pressure;Samples;Min_cycle;Max_cycle;Signal;HPM_P1;HPM_P2
2021/11/11 00:01:07;;;;;;;41.27;21.17;;;;;;;;;;10195677;28;20038;-64
2021/11/11 00:06:05;;;;;;;50.27;23.20;;;;;;;;;;10201825;28;20042;-63
2021/11/11 00:11:03;;;;;;;51.70;23.73;;;;;;;;;;10212071;28;20077;-65
2021/11/11 00:16:00;;;;;;;33.97;17.20;;;;;;;;;;10192586;28;20294;-64
2021/11/11 00:20:58;;;;;;;44.53;18.63;;;;;;;;;;10194889;28;20098;-64
2021/11/11 00:25:55;;;;;;;38.45;17.42;;;;;;;;;;10201509;28;20043;-63
2021/11/11 00:30:53;;;;;;;37.37;19.90;;;;;;;;;;10204951;28;20042;-64
2021/11/11 00:35:50;;;;;;;41.07;19.70;;;;;;;;;;10188080;28;20126;-63
2021/11/11 00:40:47;;;;;;;55.33;24.63;;;;;;;;;;10204469;28;20755;-62
2021/11/11 00:45:45;;;;;;;34.27;14.70;;;;;;;;;;10214334;28;20125;-63
2021/11/11 00:50:43;;;;;;;47.13;26.27;;;;;;;;;;10199862;28;20460;-62
2021/11/11 00:55:41;;;;;;;39.92;10.23;;;;;;;;;;10199736;28;20056;-63
2021/11/11 01:00:52;;;;;;;42.17;20.45;;;;;;;;;;10198914;28;20056;-62
2021/11/11 01:05:49;;;;;;;42.00;20.52;;;;;;;;;;10185219;28;20496;-64
2021/11/11 01:10:48;;;;;;;37.80;17.13;;;;;;;;;;10203899;28;20515;-64
2021/11/11 01:15:45;;;;;;;30.17;13.65;;;;;;;;;;10210635;28;20392;-64
2021/11/11 01:20:43;;;;;;;53.63;24.23;;;;;;;;;;10186816;28;20049;-64
2021/11/11 01:25:41;;;;;;;34.23;17.47;;;;;;;;;;10184004;28;20045;-64
2021/11/11 01:30:41;;;;;;;47.78;23.52;;;;;;;;;;10177899;28;20562;-64
2021/11/11 01:36:08;;;;;;;45.35;22.70;;;;;;;;;;10191097;28;20429;-63
2021/11/11 01:41:19;;;;;;;46.72;23.33;;;;;;;;;;10184973;28;20062;-64
2021/11/11 01:46:18;;;;;;;56.10;24.10;;;;;;;;;;10180703;28;20049;-63
2021/11/11 01:51:16;;;;;;;57.30;24.05;;;;;;;;;;10192091;28;20357;-65
2021/11/11 01:56:23;;;;;;;49.97;24.38;;;;;;;;;;10209696;28;20113;-63
2021/11/11 02:01:23;;;;;;;55.22;23.38;;;;;;;;;;10174581;28;20030;-61
2021/11/11 02:06:21;;;;;;;59.10;25.35;;;;;;;;;;10205381;28;20089;-65
2021/11/11 02:11:30;;;;;;;52.10;23.80;;;;;;;;;;10182001;28;20041;-64
2021/11/11 02:16:28;;;;;;;53.47;23.90;;;;;;;;;;10186399;28;20566;-64
2021/11/11 02:21:26;;;;;;;51.22;23.77;;;;;;;;;;10186380;28;20504;-65
2021/11/11 02:26:29;;;;;;;41.47;17.50;;;;;;;;;;10232118;28;20038;-63
2021/11/11 02:31:38;;;;;;;38.28;16.52;;;;;;;;;;10209738;28;20602;-64
2021/11/11 02:36:50;;;;;;;57.00;24.73;;;;;;;;;;10188109;28;20042;-64
2021/11/11 02:41:50;;;;;;;60.75;25.70;;;;;;;;;;10202743;28;20120;-63
2021/11/11 02:46:51;;;;;;;64.95;27.73;;;;;;;;;;10211075;28;20034;-63
2021/11/11 02:51:51;;;;;;;57.28;26.40;;;;;;;;;;10218716;28;20030;-63
2021/11/11 02:56:49;;;;;;;51.65;23.33;;;;;;;;;;10219189;28;20039;-63
2021/11/11 03:01:46;;;;;;;52.43;23.90;;;;;;;;;;10212815;28;20042;-62
2021/11/11 03:06:46;;;;;;;29.90;12.27;;;;;;;;;;10187395;28;20336;-64
2021/11/11 03:11:43;;;;;;;62.70;26.37;;;;;;;;;;10196348;28;20890;-61
2021/11/11 03:16:41;;;;;;;37.05;17.35;;;;;;;;;;10199551;28;20042;-61
2021/11/11 03:21:39;;;;;;;54.53;22.73;;;;;;;;;;10215174;28;20042;-63
2021/11/11 03:26:37;;;;;;;43.13;18.73;;;;;;;;;;10185768;28;20054;-63
2021/11/11 03:31:35;;;;;;;61.80;25.17;;;;;;;;;;10205637;28;20038;-64
2021/11/11 03:36:33;;;;;;;38.33;16.17;;;;;;;;;;10219152;28;20137;-62
2021/11/11 03:41:31;;;;;;;51.93;22.87;;;;;;;;;;10206223;28;20567;-63
2021/11/11 03:46:29;;;;;;;38.58;18.27;;;;;;;;;;10203056;28;20045;-64
2021/11/11 03:51:27;;;;;;;53.83;22.70;;;;;;;;;;10203973;28;20069;-62
2021/11/11 03:56:25;;;;;;;63.67;29.10;;;;;;;;;;10184002;28;20035;-63
2021/11/11 04:01:27;;;;;;;56.22;26.65;;;;;;;;;;10211072;28;20030;-62
2021/11/11 04:06:25;;;;;;;56.57;26.93;;;;;;;;;;10192633;28;20419;-63
2021/11/11 04:11:23;;;;;;;38.72;17.08;;;;;;;;;;10201855;28;20590;-62
2021/11/11 04:16:24;;;;;;;25.02;9.68;;;;;;;;;;10198041;28;20039;-63
2021/11/11 04:21:22;;;;;;;12.05;6.97;;;;;;;;;;10197780;28;20042;-61
2021/11/11 04:26:24;;;;;;;26.45;12.52;;;;;;;;;;10203685;28;20042;-61
2021/11/11 04:31:29;;;;;;;15.43;7.90;;;;;;;;;;10188207;28;20937;-62
2021/11/11 04:46:55;;;;;;;40.53;19.65;;;;;;;;;;10204796;28;20030;-61
2021/11/11 05:07:17;;;;;;;61.87;27.57;;;;;;;;;;10205053;28;20049;-61
2021/11/11 05:12:19;;;;;;;21.77;11.38;;;;;;;;;;10206950;28;20034;-60
2021/11/11 05:17:22;;;;;;;56.40;27.05;;;;;;;;;;10187710;28;20034;-62
2021/11/11 05:22:20;;;;;;;30.33;14.63;;;;;;;;;;10201601;28;20467;-63
2021/11/11 05:27:23;;;;;;;65.05;27.58;;;;;;;;;;10191978;28;20132;-62
2021/11/11 05:32:21;;;;;;;48.03;23.77;;;;;;;;;;10187252;28;20339;-62
2021/11/11 05:37:19;;;;;;;32.20;13.80;;;;;;;;;;10213390;28;20065;-61
2021/11/11 05:42:16;;;;;;;35.70;15.80;;;;;;;;;;10182006;28;20042;-62
2021/11/11 05:47:14;;;;;;;38.85;14.65;;;;;;;;;;10180665;28;20035;-62
2021/11/11 05:52:12;;;;;;;45.70;16.97;;;;;;;;;;10189800;28;20047;-61
2021/11/11 05:57:11;;;;;;;32.70;15.15;;;;;;;;;;10183768;28;20034;-61
2021/11/11 06:02:12;;;;;;;38.17;16.63;;;;;;;;;;10189371;28;20381;-60
2021/11/11 06:07:11;;;;;;;37.30;15.73;;;;;;;;;;10195137;28;20088;-62
2021/11/11 06:12:08;;;;;;;26.15;13.23;;;;;;;;;;10196611;28;20042;-60
2021/11/11 06:17:06;;;;;;;35.97;14.67;;;;;;;;;;10204124;28;20042;-61
2021/11/11 06:22:04;;;;;;;32.20;14.27;;;;;;;;;;10204625;28;20062;-61
2021/11/11 06:27:04;;;;;;;40.95;14.90;;;;;;;;;;10182027;28;20145;-61
2021/11/11 06:32:04;;;;;;;35.80;15.13;;;;;;;;;;10176583;28;20450;-64
2021/11/11 06:37:04;;;;;;;38.40;14.65;;;;;;;;;;10210115;28;20043;-61
2021/11/11 06:42:02;;;;;;;33.90;15.07;;;;;;;;;;10197680;28;20030;-61
2021/11/11 06:46:59;;;;;;;30.90;14.27;;;;;;;;;;10192580;28;20030;-62
2021/11/11 06:51:59;;;;;;;30.43;14.07;;;;;;;;;;10204910;28;20046;-63
2021/11/11 06:56:56;;;;;;;35.45;14.80;;;;;;;;;;10197603;28;20026;-59
2021/11/11 07:01:56;;;;;;;36.78;13.88;;;;;;;;;;10193943;28;20046;-61
2021/11/11 07:06:53;;;;;;;33.47;14.10;;;;;;;;;;10178949;28;20543;-61
2021/11/11 07:11:51;;;;;;;36.47;15.10;;;;;;;;;;10199545;28;20465;-62
2021/11/11 07:16:49;;;;;;;36.92;15.30;;;;;;;;;;10180169;28;20053;-61
2021/11/11 07:21:46;;;;;;;39.25;14.82;;;;;;;;;;10199227;28;20030;-63
2021/11/11 07:26:44;;;;;;;38.27;16.03;;;;;;;;;;10176881;28;20053;-63
2021/11/11 07:31:43;;;;;;;29.10;12.80;;;;;;;;;;10189025;28;20035;-58
2021/11/11 07:36:41;;;;;;;33.42;16.48;;;;;;;;;;10182308;28;20039;-62
2021/11/11 07:41:39;;;;;;;33.30;13.80;;;;;;;;;;10178930;28;20415;-63
2021/11/11 07:46:37;;;;;;;32.17;15.10;;;;;;;;;;10210944;28;20129;-63
2021/11/11 07:51:35;;;;;;;39.15;14.38;;;;;;;;;;10173191;28;20300;-58
2021/11/11 07:56:34;;;;;;;35.67;15.83;;;;;;;;;;10201959;28;20035;-62
2021/11/11 08:01:32;;;;;;;32.33;13.60;;;;;;;;;;10184580;28;20176;-62
2021/11/11 08:06:29;;;;;;;36.33;15.30;;;;;;;;;;10198733;28;20177;-62
2021/11/11 08:11:27;;;;;;;35.40;16.20;;;;;;;;;;10180665;28;20096;-62
2021/11/11 08:16:24;;;;;;;37.30;17.53;;;;;;;;;;10200518;28;20034;-63
2021/11/11 08:21:22;;;;;;;30.37;14.27;;;;;;;;;;10204107;28;20038;-60
2021/11/11 08:26:19;;;;;;;30.83;14.43;;;;;;;;;;10207496;28;20054;-62
2021/11/11 08:31:17;;;;;;;35.77;15.30;;;;;;;;;;10221110;28;20092;-60
2021/11/11 08:36:14;;;;;;;31.90;13.17;;;;;;;;;;10213694;28;20663;-62
2021/11/11 08:41:12;;;;;;;32.27;13.70;;;;;;;;;;10210353;28;20527;-63
2021/11/11 08:46:09;;;;;;;28.47;13.53;;;;;;;;;;10189249;28;20035;-62
2021/11/11 08:51:08;;;;;;;29.50;13.25;;;;;;;;;;10186364;28;20065;-62
2021/11/11 08:56:06;;;;;;;23.75;11.50;;;;;;;;;;10210302;28;20482;-62
2021/11/11 09:01:06;;;;;;;25.73;13.45;;;;;;;;;;10172995;28;20426;-63
2021/11/11 09:06:03;;;;;;;35.30;15.05;;;;;;;;;;10210074;28;20038;-60
2021/11/11 09:11:01;;;;;;;34.17;13.50;;;;;;;;;;10189157;28;20045;-63
2021/11/11 09:15:59;;;;;;;39.67;14.40;;;;;;;;;;10202839;28;20068;-62
2021/11/11 09:20:57;;;;;;;;;;;;;;;;;;10183403;28;20045;-63
2021/11/11 09:25:54;;;;;;;28.92;12.38;;;;;;;;;;10196243;28;19917;-64
2021/11/11 09:30:51;;;;;;;23.40;11.27;;;;;;;;;;10215101;28;20494;-63
2021/11/11 09:35:52;;;;;;;30.27;12.73;;;;;;;;;;10196936;28;20416;-64
2021/11/11 09:40:50;;;;;;;27.70;12.13;;;;;;;;;;10194273;28;20038;-62
2021/11/11 09:45:48;;;;;;;21.77;10.52;;;;;;;;;;10202552;28;20053;-64
2021/11/11 09:50:46;;;;;;;24.52;10.02;;;;;;;;;;10194262;28;20074;-63
2021/11/11 10:01:01;;;;;;;32.38;12.77;;;;;;;;;;10195305;28;20154;-62
2021/11/11 10:05:58;;;;;;;;;;;;;;;;;;10199973;28;20038;-63
2021/11/11 10:10:55;;;;;;;23.45;10.70;;;;;;;;;;10201372;28;19922;-62
2021/11/11 10:15:59;;;;;;;22.80;11.60;;;;;;;;;;10208440;28;20034;-60
2021/11/11 10:20:57;;;;;;;25.17;11.27;;;;;;;;;;10186801;28;20038;-63
2021/11/11 10:26:19;;;;;;;26.00;11.23;;;;;;;;;;10204224;28;20046;-62
2021/11/11 10:31:18;;;;;;;30.63;12.23;;;;;;;;;;10194074;28;20137;-62
2021/11/11 10:36:35;;;;;;;25.98;11.07;;;;;;;;;;10193109;28;20045;-62
2021/11/11 10:41:32;;;;;;;19.73;8.80;;;;;;;;;;10199588;28;20039;-62
2021/11/11 10:46:43;;;;;;;21.70;7.40;;;;;;;;;;10191218;28;20043;-62
2021/11/11 10:51:41;;;;;;;41.05;10.88;;;;;;;;;;10217153;28;20494;-63
2021/11/11 10:56:45;;;;;;;27.73;11.23;;;;;;;;;;10221098;28;20034;-62
2021/11/11 11:01:43;;;;;;;25.50;10.57;;;;;;;;;;10190893;28;20034;-62
2021/11/11 11:06:41;;;;;;;24.85;10.85;;;;;;;;;;10209754;28;20038;-63
2021/11/11 11:11:39;;;;;;;23.70;9.43;;;;;;;;;;10202042;28;20053;-63
2021/11/11 11:16:36;;;;;;;24.60;9.83;;;;;;;;;;10206970;28;20495;-64
2021/11/11 11:21:37;;;;;;;18.43;9.17;;;;;;;;;;10193142;28;20039;-63
2021/11/11 11:26:35;;;;;;;26.08;9.40;;;;;;;;;;10204625;28;20418;-62
2021/11/11 11:31:52;;;;;;;23.42;8.48;;;;;;;;;;10204025;28;20512;-63
2021/11/11 11:36:51;;;;;;;19.05;8.63;;;;;;;;;;10216378;28;20038;-63
2021/11/11 11:41:50;;;;;;;17.23;8.32;;;;;;;;;;10195323;28;20081;-62
2021/11/11 11:46:53;;;;;;;17.23;7.85;;;;;;;;;;10186047;28;20045;-64
2021/11/11 11:51:50;;;;;;;18.63;8.63;;;;;;;;;;10205002;28;20565;-64
2021/11/11 11:56:53;;;;;;;17.47;8.20;;;;;;;;;;10187425;28;20113;-64
2021/11/11 12:12:25;;;;;;;14.02;7.43;;;;;;;;;;10200244;28;20543;-61
2021/11/11 12:17:43;;;;;;;21.60;8.07;;;;;;;;;;10211427;28;20117;-64
2021/11/11 12:39:22;;;;;;;17.38;7.38;;;;;;;;;;10217157;28;20092;-63
2021/11/11 12:44:23;;;;;;;10.85;6.43;;;;;;;;;;10191847;28;20635;-61
2021/11/11 12:49:35;;;;;;;20.38;5.90;;;;;;;;;;10196936;28;20042;-64
2021/11/11 12:54:33;;;;;;;10.07;2.80;;;;;;;;;;10184117;28;20326;-62
2021/11/11 12:59:32;;;;;;;13.52;5.80;;;;;;;;;;10198720;28;20045;-63
2021/11/11 13:04:46;;;;;;;11.82;5.05;;;;;;;;;;10183972;28;20081;-63
2021/11/11 13:09:57;;;;;;;10.90;5.82;;;;;;;;;;10192512;28;20620;-63
2021/11/11 13:14:57;;;;;;;12.05;7.03;;;;;;;;;;10195830;28;20049;-61
2021/11/11 13:20:06;;;;;;;15.98;7.47;;;;;;;;;;10191497;28;20054;-63
2021/11/11 15:44:55;;;;;;;6.38;4.55;;;;;;;;;;10198438;28;20307;-60
2021/11/11 16:24:07;;;;;;;8.30;4.40;;;;;;;;;;10201864;28;20034;-62
2021/11/11 16:29:05;;;;;;;9.45;4.47;;;;;;;;;;10200284;28;20038;-61
2021/11/11 16:34:02;;;;;;;7.32;5.03;;;;;;;;;;10175485;28;20062;-61
2021/11/11 16:39:00;;;;;;;12.53;5.00;;;;;;;;;;10205475;28;20447;-62
2021/11/11 16:43:57;;;;;;;16.00;4.50;;;;;;;;;;10206390;28;20356;-61
2021/11/11 16:48:55;;;;;;;12.20;5.80;;;;;;;;;;10200154;28;20034;-62
2021/11/11 16:53:52;;;;;;;10.63;5.13;;;;;;;;;;10189857;28;20323;-62
2021/11/11 16:58:49;;;;;;;13.30;5.90;;;;;;;;;;10197771;28;20041;-60
2021/11/11 17:03:48;;;;;;;12.03;5.47;;;;;;;;;;10201188;28;20026;-61
2021/11/11 17:08:45;;;;;;;;;;;;;;;;;;10206063;28;20031;-61
2021/11/11 17:13:44;;;;;;;13.60;6.18;;;;;;;;;;10192216;28;19914;-62
2021/11/11 17:18:41;;;;;;;11.80;5.95;;;;;;;;;;10207876;28;20251;-61
2021/11/11 17:24:03;;;;;;;11.77;6.43;;;;;;;;;;10205052;28;20173;-61
2021/11/11 17:28:56;;;;;;;16.05;7.38;;;;;;;;;;10214379;28;20050;-62
2021/11/11 17:33:54;;;;;;;13.80;6.63;;;;;;;;;;10204506;28;20045;-62
2021/11/11 17:38:53;;;;;;;17.17;6.63;;;;;;;;;;10199613;28;20027;-61
2021/11/11 17:43:52;;;;;;;15.68;8.57;;;;;;;;;;10193221;28;20407;-62
2021/11/11 17:48:52;;;;;;;16.30;9.18;;;;;;;;;;10184501;28;20475;-60
2021/11/11 17:53:55;;;;;;;24.65;11.13;;;;;;;;;;10178831;28;20035;-61
2021/11/11 17:58:56;;;;;;;20.00;8.60;;;;;;;;;;10178093;28;20565;-59
2021/11/11 18:03:55;;;;;;;15.65;7.18;;;;;;;;;;10198612;28;20027;-62
2021/11/11 18:08:57;;;;;;;19.77;10.13;;;;;;;;;;10203892;28;20181;-62
2021/11/11 18:13:59;;;;;;;26.45;11.40;;;;;;;;;;10200895;28;20109;-62
2021/11/11 18:18:57;;;;;;;23.73;11.13;;;;;;;;;;10190746;28;20039;-60
2021/11/11 18:23:56;;;;;;;29.08;11.70;;;;;;;;;;10196017;28;20034;-61
2021/11/11 18:28:57;;;;;;;24.77;12.15;;;;;;;;;;10204072;28;20350;-63
2021/11/11 18:34:06;;;;;;;24.98;10.93;;;;;;;;;;10215634;28;20053;-62
2021/11/11 18:39:12;;;;;;;26.88;12.30;;;;;;;;;;10197887;28;20050;-62
2021/11/11 18:44:11;;;;;;;32.30;13.95;;;;;;;;;;10179121;28;20132;-63
2021/11/11 18:49:09;;;;;;;28.42;12.50;;;;;;;;;;10185691;28;20052;-63
2021/11/11 18:54:08;;;;;;;31.80;13.70;;;;;;;;;;10191518;28;20035;-62
2021/11/11 18:59:06;;;;;;;33.70;13.80;;;;;;;;;;10187220;28;20041;-63
2021/11/11 19:04:07;;;;;;;40.22;15.10;;;;;;;;;;10194904;28;20042;-63
2021/11/11 19:14:05;;;;;;;34.75;15.32;;;;;;;;;;10192674;28;20219;-63
2021/11/11 19:19:07;;;;;;;33.35;14.73;;;;;;;;;;10197637;28;20121;-64
2021/11/11 19:24:05;;;;;;;33.88;13.95;;;;;;;;;;10180460;28;20373;-63
2021/11/11 19:29:03;;;;;;;30.13;13.88;;;;;;;;;;10195834;28;20038;-62
2021/11/11 19:34:17;;;;;;;39.37;15.17;;;;;;;;;;10207093;28;20038;-63
2021/11/11 19:54:46;;;;;;;40.92;14.90;;;;;;;;;;10192097;28;20034;-63
2021/11/11 20:10:38;;;;;;;35.05;15.02;;;;;;;;;;10205428;28;20454;-63
2021/11/11 20:41:43;;;;;;;45.43;17.80;;;;;;;;;;10189956;28;20039;-62
2021/11/11 20:57:16;;;;;;;52.75;21.20;;;;;;;;;;10179476;28;20042;-63
2021/11/11 21:07:22;;;;;;;49.70;18.60;;;;;;;;;;10189042;28;20043;-63
2021/11/11 21:18:03;;;;;;;53.53;20.00;;;;;;;;;;10181513;28;20042;-64
2021/11/11 21:22:39;;;;;;;48.17;17.85;;;;;;;;;;10187258;28;20179;-63
2021/11/11 21:27:38;;;;;;;54.92;18.15;;;;;;;;;;10181726;28;20049;-63
2021/11/11 21:32:36;;;;;;;54.85;19.30;;;;;;;;;;10194143;28;20078;-63
2021/11/11 21:37:50;;;;;;;55.60;20.40;;;;;;;;;;10198222;28;20038;-62
2021/11/11 21:42:50;;;;;;;66.43;23.25;;;;;;;;;;10176434;28;20042;-63
2021/11/11 21:47:48;;;;;;;60.25;23.02;;;;;;;;;;10167386;28;20428;-62
2021/11/11 21:52:55;;;;;;;58.77;22.33;;;;;;;;;;10179974;28;20038;-64
2021/11/11 22:23:46;;;;;;;86.50;29.50;;;;;;;;;;10194426;28;20572;-62
2021/11/11 22:29:00;;;;;;;104.20;33.50;;;;;;;;;;10186585;28;20072;-62
2021/11/11 22:34:01;;;;;;;101.10;38.08;;;;;;;;;;10194613;28;20515;-64
2021/11/11 22:38:58;;;;;;;34.67;13.00;;;;;;;;;;10196303;28;20436;-63
2021/11/11 22:43:56;;;;;;;47.20;16.20;;;;;;;;;;10185195;28;20034;-62
2021/11/11 22:48:53;;;;;;;54.17;18.47;;;;;;;;;;10174553;28;20038;-62
2021/11/11 22:53:59;;;;;;;35.27;16.37;;;;;;;;;;10191423;28;20042;-61
2021/11/11 23:09:20;;;;;;;44.70;14.55;;;;;;;;;;10201715;28;20235;-62
2021/11/11 23:35:04;;;;;;;50.97;20.95;;;;;;;;;;10190022;28;20066;-62
2021/11/11 23:40:03;;;;;;;73.70;27.20;;;;;;;;;;10184424;28;20125;-58
2021/11/11 23:45:00;;;;;;;;;;;;;;;;;;10195095;28;20649;-59
2021/11/11 23:50:24;;;;;;;59.00;20.25;;;;;;;;;;10199044;28;20294;-61
